createdAt,value
2019-03-11T00:00:09.774Z,0.00
2019-03-11T00:01:09.735Z,0.00
2019-03-11T00:02:09.727Z,0.00
2019-03-11T00:03:09.725Z,0.00
2019-03-11T00:04:10.658Z,0.00
2019-03-11T00:05:09.715Z,0.00
2019-03-11T00:06:09.677Z,0.00
2019-03-11T00:07:09.674Z,0.00
2019-03-11T00:08:09.674Z,0.00
2019-03-11T00:09:09.685Z,0.00
2019-03-11T00:10:09.728Z,0.00
2019-03-11T00:11:09.632Z,0.00
2019-03-11T00:12:09.671Z,0.00
2019-03-11T00:13:09.622Z,0.00
2019-03-11T00:14:09.605Z,0.00
2019-03-11T00:15:09.591Z,0.00
2019-03-11T00:16:09.595Z,0.00
2019-03-11T00:17:09.573Z,0.00
2019-03-11T00:18:09.605Z,0.00
2019-03-11T00:19:09.552Z,0.00
2019-03-11T00:20:09.550Z,0.00
2019-03-11T00:21:09.571Z,0.00
2019-03-11T00:22:09.526Z,0.00
2019-03-11T00:23:09.524Z,0.00
2019-03-11T00:24:10.305Z,0.00
2019-03-11T00:25:09.482Z,0.00
2019-03-11T00:26:09.487Z,0.00
2019-03-11T00:27:09.470Z,0.00
2019-03-11T00:28:09.465Z,0.00
2019-03-11T00:29:09.430Z,0.00
2019-03-11T00:30:09.490Z,0.00
2019-03-11T00:31:09.427Z,0.00
2019-03-11T00:32:09.435Z,0.00
2019-03-11T00:33:09.403Z,0.00
2019-03-11T00:34:09.403Z,0.00
2019-03-11T00:35:09.371Z,0.00
2019-03-11T00:36:09.361Z,0.00
2019-03-11T00:37:09.379Z,0.00
2019-03-11T00:38:09.368Z,0.00
2019-03-11T00:39:09.364Z,0.00
2019-03-11T00:40:09.347Z,0.00
2019-03-11T00:41:09.316Z,0.00
2019-03-11T00:42:09.315Z,0.00
2019-03-11T00:43:09.370Z,0.00
2019-03-11T00:44:09.277Z,0.00
2019-03-11T00:45:09.403Z,0.00
2019-03-11T00:46:09.269Z,0.00
2019-03-11T00:47:09.238Z,0.00
2019-03-11T00:48:09.390Z,0.00
2019-03-11T00:49:09.234Z,0.00
2019-03-11T00:50:09.213Z,0.00
2019-03-11T00:51:09.240Z,0.00
2019-03-11T00:52:09.189Z,0.00
2019-03-11T00:53:09.239Z,0.00
2019-03-11T00:54:09.174Z,0.00
2019-03-11T00:55:09.229Z,0.00
2019-03-11T00:56:10.079Z,0.00
2019-03-11T00:57:09.162Z,0.00
2019-03-11T00:58:09.416Z,0.00
2019-03-11T00:59:09.117Z,0.00
2019-03-11T01:00:09.109Z,0.00
2019-03-11T01:01:09.106Z,0.00
2019-03-11T01:02:09.091Z,0.00
2019-03-11T01:03:09.091Z,0.00
2019-03-11T01:04:09.101Z,0.00
2019-03-11T01:05:09.115Z,0.00
2019-03-11T01:06:09.041Z,0.00
2019-03-11T01:07:09.038Z,0.00
2019-03-11T01:08:09.057Z,0.00
2019-03-11T01:09:09.062Z,0.00
2019-03-11T01:10:08.996Z,0.00
2019-03-11T01:11:08.984Z,0.00
2019-03-11T01:12:08.982Z,0.00
2019-03-11T01:13:08.994Z,0.00
2019-03-11T01:14:08.968Z,0.00
2019-03-11T01:15:08.963Z,0.00
2019-03-11T01:16:08.937Z,0.00
2019-03-11T01:17:08.925Z,0.00
2019-03-11T01:18:08.918Z,0.00
2019-03-11T01:19:08.944Z,0.00
2019-03-11T01:20:08.898Z,0.00
2019-03-11T01:21:08.880Z,0.00
2019-03-11T01:22:08.920Z,0.00
2019-03-11T01:23:08.924Z,0.00
2019-03-11T01:24:08.868Z,0.00
2019-03-11T01:25:08.840Z,0.00
2019-03-11T01:26:08.947Z,0.00
2019-03-11T01:27:08.810Z,0.00
2019-03-11T01:28:08.803Z,0.00
2019-03-11T01:29:08.818Z,0.00
2019-03-11T01:30:08.876Z,0.00
2019-03-11T01:31:08.778Z,0.00
2019-03-11T01:32:08.776Z,0.00
2019-03-11T01:33:08.752Z,0.00
2019-03-11T01:34:08.774Z,0.00
2019-03-11T01:35:08.739Z,0.00
2019-03-11T01:36:08.729Z,0.00
2019-03-11T01:37:08.771Z,0.00
2019-03-11T01:38:08.749Z,0.00
2019-03-11T01:39:08.777Z,0.00
2019-03-11T01:40:08.679Z,0.00
2019-03-11T01:41:08.666Z,0.00
2019-03-11T01:42:08.674Z,0.00
2019-03-11T01:43:08.681Z,0.00
2019-03-11T01:44:17.028Z,0.00
2019-03-11T01:45:08.611Z,0.00
2019-03-11T01:46:08.619Z,0.00
2019-03-11T01:47:08.591Z,0.00
2019-03-11T01:48:08.594Z,0.00
2019-03-11T01:49:08.568Z,0.00
2019-03-11T01:50:08.580Z,0.00
2019-03-11T01:51:08.547Z,0.00
2019-03-11T01:52:08.554Z,0.00
2019-03-11T01:53:08.536Z,0.00
2019-03-11T01:54:08.570Z,0.00
2019-03-11T01:55:08.529Z,0.00
2019-03-11T01:56:08.497Z,0.00
2019-03-11T01:57:08.483Z,0.00
2019-03-11T01:58:08.523Z,0.00
2019-03-11T01:59:08.470Z,0.00
2019-03-11T02:00:08.502Z,0.00
2019-03-11T02:01:08.450Z,0.00
2019-03-11T02:02:08.432Z,0.00
2019-03-11T02:03:08.420Z,0.00
2019-03-11T02:04:08.414Z,0.00
2019-03-11T02:05:08.424Z,0.00
2019-03-11T02:06:08.384Z,0.00
2019-03-11T02:07:08.391Z,0.00
2019-03-11T02:08:08.379Z,0.00
2019-03-11T02:09:08.387Z,0.00
2019-03-11T02:10:08.347Z,0.00
2019-03-11T02:11:08.352Z,0.00
2019-03-11T02:12:08.323Z,0.00
2019-03-11T02:13:08.316Z,0.00
2019-03-11T02:14:08.321Z,0.00
2019-03-11T02:15:08.300Z,0.00
2019-03-11T02:16:08.292Z,0.00
2019-03-11T02:17:08.268Z,0.00
2019-03-11T02:18:08.262Z,0.00
2019-03-11T02:19:08.263Z,0.00
2019-03-11T02:20:08.253Z,0.00
2019-03-11T02:21:08.245Z,0.00
2019-03-11T02:22:08.223Z,0.00
2019-03-11T02:23:08.218Z,0.00
2019-03-11T02:24:08.196Z,0.00
2019-03-11T02:25:08.248Z,0.00
2019-03-11T02:26:08.202Z,0.00
2019-03-11T02:27:08.261Z,0.00
2019-03-11T02:28:08.165Z,0.00
2019-03-11T02:29:08.138Z,0.00
2019-03-11T02:30:08.142Z,0.00
2019-03-11T02:31:08.178Z,0.00
2019-03-11T02:32:08.108Z,0.00
2019-03-11T02:33:08.115Z,0.00
2019-03-11T02:34:08.104Z,0.00
2019-03-11T02:35:08.082Z,0.00
2019-03-11T02:36:08.082Z,0.00
2019-03-11T02:37:08.060Z,0.00
2019-03-11T02:38:08.051Z,0.00
2019-03-11T02:39:08.045Z,0.00
2019-03-11T02:40:08.047Z,0.00
2019-03-11T02:41:08.048Z,0.00
2019-03-11T02:42:08.030Z,0.00
2019-03-11T02:43:07.992Z,0.00
2019-03-11T02:44:08.034Z,0.00
2019-03-11T02:45:07.974Z,0.00
2019-03-11T02:46:07.997Z,0.00
2019-03-11T02:47:07.944Z,0.00
2019-03-11T02:48:07.950Z,0.00
2019-03-11T02:49:07.930Z,0.00
2019-03-11T02:50:07.920Z,0.00
2019-03-11T02:51:07.921Z,0.00
2019-03-11T02:52:07.908Z,0.00
2019-03-11T02:53:07.889Z,0.00
2019-03-11T02:54:07.889Z,0.00
2019-03-11T02:55:07.966Z,0.00
2019-03-11T02:56:07.890Z,0.00
2019-03-11T02:57:07.885Z,0.00
2019-03-11T02:58:07.834Z,0.00
2019-03-11T02:59:07.834Z,0.00
2019-03-11T03:00:07.822Z,0.00
2019-03-11T03:01:07.894Z,0.00
2019-03-11T03:02:07.869Z,0.00
2019-03-11T03:03:07.795Z,0.00
2019-03-11T03:04:07.767Z,0.00
2019-03-11T03:05:07.759Z,0.00
2019-03-11T03:06:07.770Z,0.00
2019-03-11T03:07:07.749Z,0.00
2019-03-11T03:08:07.752Z,0.00
2019-03-11T03:09:07.722Z,0.00
2019-03-11T03:10:07.708Z,0.00
2019-03-11T03:11:07.712Z,0.00
2019-03-11T03:12:07.691Z,0.00
2019-03-11T03:13:07.681Z,0.00
2019-03-11T03:14:07.678Z,0.00
2019-03-11T03:15:07.679Z,0.00
2019-03-11T03:16:07.729Z,0.00
2019-03-11T03:17:07.644Z,0.00
2019-03-11T03:18:07.625Z,0.00
2019-03-11T03:19:07.621Z,0.00
2019-03-11T03:20:07.596Z,0.00
2019-03-11T03:21:07.628Z,0.00
2019-03-11T03:22:07.576Z,0.00
2019-03-11T03:23:07.566Z,0.00
2019-03-11T03:24:07.564Z,0.00
2019-03-11T03:25:07.548Z,0.00
2019-03-11T03:26:07.568Z,0.00
2019-03-11T03:27:07.551Z,0.00
2019-03-11T03:28:07.921Z,0.00
2019-03-11T03:29:07.508Z,0.00
2019-03-11T03:30:07.509Z,0.00
2019-03-11T03:31:07.557Z,0.00
2019-03-11T03:32:07.491Z,0.00
2019-03-11T03:33:07.489Z,0.00
2019-03-11T03:34:07.460Z,0.00
2019-03-11T03:35:07.444Z,0.00
2019-03-11T03:36:07.438Z,0.00
2019-03-11T03:37:07.445Z,0.00
2019-03-11T03:38:07.420Z,0.00
2019-03-11T03:39:07.429Z,0.00
2019-03-11T03:40:07.380Z,0.00
2019-03-11T03:41:07.376Z,0.00
2019-03-11T03:42:07.423Z,0.00
2019-03-11T03:43:07.521Z,0.00
2019-03-11T03:44:07.372Z,0.00
2019-03-11T03:45:07.339Z,0.00
2019-03-11T03:46:18.536Z,0.00
2019-03-11T03:47:08.336Z,0.00
2019-03-11T03:48:07.298Z,0.00
2019-03-11T03:49:07.312Z,0.00
2019-03-11T03:50:07.302Z,0.00
2019-03-11T03:51:07.270Z,0.00
2019-03-11T03:52:07.288Z,0.00
2019-03-11T03:53:07.254Z,0.00
2019-03-11T03:54:07.231Z,0.00
2019-03-11T03:55:07.256Z,0.00
2019-03-11T03:56:07.216Z,0.00
2019-03-11T03:57:07.226Z,0.00
2019-03-11T03:58:07.221Z,0.00
2019-03-11T03:59:07.188Z,0.00
2019-03-11T04:00:07.183Z,0.00
2019-03-11T04:01:07.189Z,0.00
2019-03-11T04:02:07.159Z,0.00
2019-03-11T04:03:07.157Z,0.00
2019-03-11T04:04:07.131Z,0.00
2019-03-11T04:05:07.118Z,0.00
2019-03-11T04:06:07.114Z,0.00
2019-03-11T04:07:07.110Z,0.00
2019-03-11T04:08:07.112Z,0.00
2019-03-11T04:09:07.077Z,0.00
2019-03-11T04:10:07.065Z,0.00
2019-03-11T04:11:07.060Z,0.00
2019-03-11T04:12:07.052Z,0.00
2019-03-11T04:13:07.050Z,0.00
2019-03-11T04:14:07.023Z,0.00
2019-03-11T04:15:07.018Z,0.00
2019-03-11T04:16:07.103Z,0.00
2019-03-11T04:17:06.991Z,0.00
2019-03-11T04:18:07.002Z,0.00
2019-03-11T04:19:06.974Z,0.00
2019-03-11T04:20:06.972Z,0.00
2019-03-11T04:21:06.947Z,0.00
2019-03-11T04:22:06.933Z,0.00
2019-03-11T04:23:06.943Z,0.00
2019-03-11T04:24:06.945Z,0.00
2019-03-11T04:25:06.909Z,0.00
2019-03-11T04:26:06.899Z,0.00
2019-03-11T04:27:06.883Z,0.00
2019-03-11T04:28:06.901Z,0.00
2019-03-11T04:29:06.864Z,0.00
2019-03-11T04:30:06.854Z,0.00
2019-03-11T04:31:06.843Z,0.00
2019-03-11T04:32:06.832Z,0.00
2019-03-11T04:33:06.831Z,0.00
2019-03-11T04:34:06.810Z,0.00
2019-03-11T04:35:06.799Z,0.00
2019-03-11T04:36:06.791Z,0.00
2019-03-11T04:37:06.792Z,0.00
2019-03-11T04:38:06.804Z,0.00
2019-03-11T04:39:06.759Z,0.00
2019-03-11T04:40:06.746Z,0.00
2019-03-11T04:41:06.744Z,0.00
2019-03-11T04:42:06.725Z,0.00
2019-03-11T04:43:06.714Z,0.00
2019-03-11T04:44:07.063Z,0.00
2019-03-11T04:45:06.697Z,0.00
2019-03-11T04:46:06.680Z,0.00
2019-03-11T04:47:06.679Z,0.00
2019-03-11T04:48:06.670Z,0.00
2019-03-11T04:49:06.668Z,0.00
2019-03-11T04:50:06.644Z,0.00
2019-03-11T04:51:06.624Z,0.00
2019-03-11T04:52:06.621Z,0.00
2019-03-11T04:53:06.610Z,0.00
2019-03-11T04:54:06.636Z,0.00
2019-03-11T04:55:06.590Z,0.00
2019-03-11T04:56:06.574Z,0.00
2019-03-11T04:57:06.562Z,0.00
2019-03-11T04:58:06.563Z,0.00
2019-03-11T04:59:06.569Z,0.00
2019-03-11T05:00:06.535Z,0.00
2019-03-11T05:01:06.523Z,0.00
2019-03-11T05:02:06.523Z,0.00
2019-03-11T05:03:06.503Z,0.00
2019-03-11T05:04:06.507Z,0.00
2019-03-11T05:05:06.484Z,0.00
2019-03-11T05:06:06.475Z,4.00
2019-03-11T05:07:06.465Z,4.00
2019-03-11T05:08:06.451Z,4.00
2019-03-11T05:09:06.501Z,0.00
2019-03-11T05:10:06.427Z,0.00
2019-03-11T05:11:06.424Z,4.00
2019-03-11T05:12:06.405Z,4.00
2019-03-11T05:13:06.389Z,4.00
2019-03-11T05:14:06.405Z,4.00
2019-03-11T05:15:06.379Z,8.00
2019-03-11T05:16:06.384Z,4.00
2019-03-11T05:17:06.352Z,8.00
2019-03-11T05:18:06.377Z,8.00
2019-03-11T05:19:06.367Z,8.00
2019-03-11T05:20:06.322Z,8.00
2019-03-11T05:21:06.309Z,12.00
2019-03-11T05:22:06.319Z,16.00
2019-03-11T05:23:06.291Z,20.00
2019-03-11T05:24:06.899Z,20.00
2019-03-11T05:25:06.269Z,24.00
2019-03-11T05:26:06.261Z,28.00
2019-03-11T05:27:06.252Z,32.00
2019-03-11T05:28:06.230Z,32.00
2019-03-11T05:29:06.226Z,36.00
2019-03-11T05:30:06.228Z,44.00
2019-03-11T05:31:06.204Z,44.00
2019-03-11T05:32:06.209Z,52.00
2019-03-11T05:33:06.183Z,64.00
2019-03-11T05:34:06.174Z,72.00
2019-03-11T05:35:06.192Z,76.00
2019-03-11T05:36:06.210Z,80.00
2019-03-11T05:37:06.133Z,84.00
2019-03-11T05:38:06.131Z,76.00
2019-03-11T05:39:06.114Z,92.00
2019-03-11T05:40:06.155Z,100.00
2019-03-11T05:41:08.549Z,104.00
2019-03-11T05:42:06.092Z,116.00
2019-03-11T05:43:06.075Z,128.00
2019-03-11T05:44:06.065Z,148.00
2019-03-11T05:45:06.053Z,164.00
2019-03-11T05:46:06.067Z,176.00
2019-03-11T05:47:06.031Z,196.00
2019-03-11T05:48:06.026Z,208.00
2019-03-11T05:49:06.013Z,208.00
2019-03-11T05:50:06.001Z,224.00
2019-03-11T05:51:06.093Z,228.00
2019-03-11T05:52:05.978Z,228.00
2019-03-11T05:53:05.984Z,220.00
2019-03-11T05:54:05.965Z,272.00
2019-03-11T05:55:05.950Z,340.00
2019-03-11T05:56:05.957Z,432.00
2019-03-11T05:57:05.927Z,516.00
2019-03-11T05:58:05.957Z,576.00
2019-03-11T05:59:05.910Z,632.00
2019-03-11T06:00:05.898Z,676.00
2019-03-11T06:01:05.913Z,724.00
2019-03-11T06:02:05.865Z,772.00
2019-03-11T06:03:05.887Z,792.00
2019-03-11T06:04:05.849Z,836.00
2019-03-11T06:05:05.841Z,880.00
2019-03-11T06:06:05.859Z,944.00
2019-03-11T06:07:05.837Z,960.00
2019-03-11T06:08:05.829Z,984.00
2019-03-11T06:09:05.797Z,996.00
2019-03-11T06:10:05.787Z,1024.00
2019-03-11T06:11:06.019Z,1040.00
2019-03-11T06:12:06.007Z,1056.00
2019-03-11T06:13:05.748Z,1088.00
2019-03-11T06:14:05.816Z,1096.00
2019-03-11T06:15:05.730Z,1128.00
2019-03-11T06:16:05.726Z,1144.00
2019-03-11T06:17:05.779Z,1152.00
2019-03-11T06:18:05.697Z,1160.00
2019-03-11T06:19:05.687Z,1196.00
2019-03-11T06:20:06.327Z,1252.00
2019-03-11T06:21:05.695Z,1340.00
2019-03-11T06:22:05.673Z,1448.00
2019-03-11T06:23:05.647Z,1560.00
2019-03-11T06:24:05.641Z,1656.00
2019-03-11T06:25:05.636Z,1752.00
2019-03-11T06:26:05.618Z,1816.00
2019-03-11T06:27:05.624Z,1852.00
2019-03-11T06:28:05.602Z,1864.00
2019-03-11T06:29:05.585Z,1896.00
2019-03-11T06:30:08.074Z,1928.00
2019-03-11T06:31:05.557Z,1960.00
2019-03-11T06:32:05.579Z,2012.00
2019-03-11T06:33:05.545Z,2064.00
2019-03-11T06:34:05.531Z,2092.00
2019-03-11T06:35:05.525Z,2104.00
2019-03-11T06:36:05.508Z,2108.00
2019-03-11T06:37:05.491Z,2108.00
2019-03-11T06:38:05.505Z,2112.00
2019-03-11T06:39:06.285Z,2152.00
2019-03-11T06:40:05.482Z,2220.00
2019-03-11T06:41:05.453Z,2244.00
2019-03-11T06:42:05.468Z,2300.00
2019-03-11T06:43:05.457Z,2316.00
2019-03-11T06:44:05.418Z,2332.00
2019-03-11T06:45:05.413Z,2264.00
2019-03-11T06:46:05.517Z,2232.00
2019-03-11T06:47:05.407Z,2160.00
2019-03-11T06:48:05.397Z,2100.00
2019-03-11T06:49:05.373Z,2092.00
2019-03-11T06:50:05.360Z,2128.00
2019-03-11T06:51:05.351Z,2148.00
2019-03-11T06:52:05.976Z,2184.00
2019-03-11T06:53:05.343Z,2196.00
2019-03-11T06:54:05.321Z,2196.00
2019-03-11T06:55:05.369Z,2240.00
2019-03-11T06:56:05.289Z,2228.00
2019-03-11T06:57:05.283Z,2220.00
2019-03-11T06:58:05.299Z,2228.00
2019-03-11T06:59:05.261Z,2232.00
2019-03-11T07:00:05.249Z,2220.00
2019-03-11T07:01:05.239Z,2244.00
2019-03-11T07:02:05.224Z,2264.00
2019-03-11T07:03:05.236Z,2264.00
2019-03-11T07:04:05.239Z,2244.00
2019-03-11T07:05:05.206Z,2224.00
2019-03-11T07:06:05.205Z,2212.00
2019-03-11T07:07:05.170Z,2228.00
2019-03-11T07:08:05.183Z,2220.00
2019-03-11T07:09:05.233Z,2244.00
2019-03-11T07:10:05.183Z,2256.00
2019-03-11T07:11:05.193Z,2256.00
2019-03-11T07:12:05.138Z,2264.00
2019-03-11T07:13:05.173Z,2316.00
2019-03-11T07:14:05.117Z,2464.00
2019-03-11T07:15:05.133Z,2404.00
2019-03-11T07:16:05.096Z,2424.00
2019-03-11T07:17:05.088Z,2448.00
2019-03-11T07:18:05.076Z,2496.00
2019-03-11T07:19:05.093Z,2548.00
2019-03-11T07:20:05.057Z,2580.00
2019-03-11T07:21:05.068Z,2648.00
2019-03-11T07:22:05.073Z,2736.00
2019-03-11T07:23:05.168Z,2844.00
2019-03-11T07:24:04.992Z,3056.00
2019-03-11T07:25:05.013Z,3456.00
2019-03-11T07:26:04.987Z,3292.00
2019-03-11T07:27:05.014Z,3920.00
2019-03-11T07:28:04.965Z,4444.00
2019-03-11T07:29:04.938Z,4384.00
2019-03-11T07:30:04.926Z,4120.00
2019-03-11T07:31:04.919Z,3708.00
2019-03-11T07:32:04.923Z,3476.00
2019-03-11T07:33:07.079Z,3560.00
2019-03-11T07:34:04.974Z,3496.00
2019-03-11T07:35:08.721Z,3504.00
2019-03-11T07:36:04.916Z,4248.00
2019-03-11T07:37:04.966Z,4744.00
2019-03-11T07:38:06.542Z,4724.00
2019-03-11T07:39:04.830Z,4328.00
2019-03-11T07:40:04.816Z,4124.00
2019-03-11T07:41:04.807Z,4656.00
2019-03-11T07:42:04.797Z,4340.00
2019-03-11T07:43:04.863Z,3844.00
2019-03-11T07:44:04.922Z,3944.00
2019-03-11T07:45:04.787Z,4780.00
2019-03-11T07:46:04.760Z,5328.00
2019-03-11T07:47:04.745Z,4924.00
2019-03-11T07:48:04.805Z,4524.00
2019-03-11T07:49:04.877Z,3508.00
2019-03-11T07:50:04.762Z,4264.00
2019-03-11T07:51:04.707Z,5000.00
2019-03-11T07:52:04.705Z,5216.00
2019-03-11T07:53:04.734Z,5564.00
2019-03-11T07:54:04.837Z,4876.00
2019-03-11T07:55:06.745Z,4632.00
2019-03-11T07:57:05.885Z,3152.00
2019-03-11T07:59:35.751Z,3404.00
2019-03-11T08:00:35.721Z,3316.00
2019-03-11T08:01:14.715Z,3508.00
2019-03-11T08:02:14.707Z,3288.00
2019-03-11T08:03:14.695Z,3028.00
2019-03-11T08:04:14.702Z,2684.00
2019-03-11T08:05:14.665Z,3332.00
2019-03-11T08:06:18.369Z,3724.00
2019-03-11T08:07:14.661Z,3892.00
2019-03-11T08:08:14.655Z,3400.00
2019-03-11T08:09:14.647Z,3420.00
2019-03-11T08:10:14.613Z,3460.00
2019-03-11T08:11:14.609Z,2876.00
2019-03-11T08:12:14.601Z,2400.00
2019-03-11T08:13:14.604Z,2276.00
2019-03-11T08:14:14.660Z,3188.00
2019-03-11T08:15:14.567Z,3336.00
2019-03-11T08:16:14.559Z,3244.00
2019-03-11T08:17:14.555Z,2808.00
2019-03-11T08:18:14.547Z,3152.00
2019-03-11T08:19:14.540Z,2808.00
2019-03-11T08:20:14.509Z,3008.00
2019-03-11T08:21:14.502Z,2404.00
2019-03-11T08:22:14.490Z,1996.00
2019-03-11T08:23:14.487Z,2516.00
2019-03-11T08:24:16.538Z,2612.00
2019-03-11T08:25:14.457Z,2528.00
2019-03-11T08:26:14.444Z,2220.00
2019-03-11T08:27:14.439Z,2720.00
2019-03-11T08:28:14.478Z,2384.00
2019-03-11T08:29:14.469Z,2596.00
2019-03-11T08:30:14.428Z,2488.00
2019-03-11T08:31:14.395Z,2908.00
2019-03-11T08:32:14.384Z,3172.00
2019-03-11T08:33:14.375Z,3208.00
2019-03-11T08:34:14.402Z,3472.00
2019-03-11T08:35:14.364Z,2492.00
2019-03-11T08:36:14.412Z,2532.00
2019-03-11T08:37:14.363Z,2264.00
2019-03-11T08:38:14.328Z,1660.00
2019-03-11T08:39:14.380Z,2032.00
2019-03-11T08:40:14.304Z,2216.00
2019-03-11T08:41:14.296Z,2248.00
2019-03-11T08:42:14.285Z,2132.00
2019-03-11T08:43:14.304Z,2068.00
2019-03-11T08:44:14.277Z,1508.00
2019-03-11T08:45:14.244Z,1564.00
2019-03-11T08:46:14.230Z,1640.00
2019-03-11T08:47:14.228Z,1756.00
2019-03-11T08:48:14.212Z,1948.00
2019-03-11T08:49:14.216Z,1864.00
2019-03-11T08:50:14.197Z,2204.00
2019-03-11T08:51:14.195Z,2180.00
2019-03-11T08:52:14.174Z,1840.00
2019-03-11T08:53:14.165Z,1776.00
2019-03-11T08:54:14.181Z,2068.00
2019-03-11T08:55:14.141Z,2232.00
2019-03-11T08:56:14.131Z,2408.00
2019-03-11T08:57:14.113Z,2888.00
2019-03-11T08:58:14.121Z,3420.00
2019-03-11T08:59:14.106Z,3280.00
2019-03-11T09:00:14.122Z,3680.00
2019-03-11T09:01:14.126Z,3992.00
2019-03-11T09:02:14.066Z,3940.00
2019-03-11T09:03:14.066Z,3952.00
2019-03-11T09:04:14.046Z,4468.00
2019-03-11T09:05:14.058Z,4588.00
2019-03-11T09:06:14.040Z,3456.00
2019-03-11T09:07:14.015Z,3636.00
2019-03-11T09:08:14.004Z,3532.00
2019-03-11T09:09:14.007Z,4788.00
2019-03-11T09:10:14.006Z,4652.00
2019-03-11T09:11:13.984Z,4592.00
2019-03-11T09:12:13.958Z,3696.00
2019-03-11T09:13:13.953Z,4908.00
2019-03-11T09:14:13.941Z,4368.00
2019-03-11T09:15:13.979Z,3312.00
2019-03-11T09:16:13.921Z,2932.00
2019-03-11T09:17:13.910Z,3212.00
2019-03-11T09:18:13.895Z,3896.00
2019-03-11T09:19:13.896Z,3720.00
2019-03-11T09:20:13.926Z,3076.00
2019-03-11T09:21:13.859Z,4228.00
2019-03-11T09:22:13.860Z,3372.00
2019-03-11T09:23:13.900Z,3500.00
2019-03-11T09:24:19.169Z,4072.00
2019-03-11T09:25:14.849Z,5156.00
2019-03-11T09:26:13.842Z,5728.00
2019-03-11T09:27:13.804Z,6304.00
2019-03-11T09:28:13.795Z,6228.00
2019-03-11T09:29:13.788Z,7592.00
2019-03-11T09:30:13.819Z,7456.00
2019-03-11T09:31:13.782Z,8368.00
2019-03-11T09:32:13.744Z,9108.00
2019-03-11T09:33:13.750Z,9776.00
2019-03-11T09:34:13.738Z,9012.00
2019-03-11T09:35:13.749Z,9112.00
2019-03-11T09:36:13.760Z,9192.00
2019-03-11T09:37:13.699Z,9928.00
2019-03-11T09:38:13.702Z,10528.00
2019-03-11T09:39:13.699Z,10312.00
2019-03-11T09:40:13.694Z,10192.00
2019-03-11T09:41:13.692Z,10508.00
2019-03-11T09:42:13.637Z,11136.00
2019-03-11T09:43:13.636Z,8492.00
2019-03-11T09:44:13.626Z,12184.00
2019-03-11T09:45:13.657Z,10336.00
2019-03-11T09:46:13.630Z,9616.00
2019-03-11T09:47:13.598Z,9832.00
2019-03-11T09:48:13.594Z,10292.00
2019-03-11T09:49:13.574Z,9816.00
2019-03-11T09:50:13.563Z,9116.00
2019-03-11T09:51:13.570Z,9956.00
2019-03-11T09:52:13.541Z,9528.00
2019-03-11T09:53:13.528Z,8696.00
2019-03-11T09:54:13.517Z,9204.00
2019-03-11T09:56:14.538Z,7564.00
2019-03-11T09:57:13.498Z,6848.00
2019-03-11T09:58:13.486Z,8444.00
2019-03-11T09:59:13.479Z,7004.00
2019-03-11T10:00:13.525Z,8176.00
2019-03-11T10:01:13.486Z,8192.00
2019-03-11T10:02:13.452Z,6456.00
2019-03-11T10:03:13.444Z,6172.00
2019-03-11T10:04:13.413Z,6640.00
2019-03-11T10:05:13.415Z,5936.00
2019-03-11T10:06:13.388Z,5960.00
2019-03-11T10:07:13.398Z,5688.00
2019-03-11T10:08:13.378Z,5916.00
2019-03-11T10:09:13.414Z,4428.00
2019-03-11T10:10:13.347Z,5292.00
2019-03-11T10:11:13.344Z,6928.00
2019-03-11T10:12:13.404Z,6848.00
2019-03-11T10:13:13.314Z,4968.00
2019-03-11T10:14:13.312Z,4520.00
2019-03-11T10:15:13.293Z,4040.00
2019-03-11T10:16:13.281Z,3860.00
2019-03-11T10:17:13.304Z,4308.00
2019-03-11T10:18:13.258Z,3932.00
2019-03-11T10:19:13.255Z,3828.00
2019-03-11T10:20:13.250Z,4500.00
2019-03-11T10:21:13.284Z,5100.00
2019-03-11T10:22:13.244Z,5044.00
2019-03-11T10:23:13.209Z,6124.00
2019-03-11T10:24:13.194Z,7172.00
2019-03-11T10:25:13.227Z,7144.00
2019-03-11T10:26:13.188Z,6484.00
2019-03-11T10:27:13.196Z,7616.00
2019-03-11T10:28:13.173Z,8136.00
2019-03-11T10:29:13.146Z,9144.00
2019-03-11T10:30:13.143Z,9544.00
2019-03-11T10:31:13.134Z,11092.00
2019-03-11T10:32:13.163Z,12076.00
2019-03-11T10:33:13.105Z,12260.00
2019-03-11T10:34:13.092Z,12628.00
2019-03-11T10:35:30.687Z,12700.00
2019-03-11T10:36:14.084Z,12804.00
2019-03-11T10:37:13.082Z,13088.00
2019-03-11T10:38:13.070Z,12688.00
2019-03-11T10:39:13.038Z,12492.00
2019-03-11T10:40:13.031Z,12804.00
2019-03-11T10:41:13.012Z,12768.00
2019-03-11T10:42:13.047Z,13148.00
2019-03-11T10:43:13.005Z,13540.00
2019-03-11T10:44:12.986Z,13608.00
2019-03-11T10:45:12.969Z,13140.00
2019-03-11T10:46:12.957Z,13640.00
2019-03-11T10:47:12.977Z,13080.00
2019-03-11T10:48:13.083Z,13328.00
2019-03-11T10:49:12.942Z,13016.00
2019-03-11T10:50:12.923Z,10552.00
2019-03-11T10:51:12.921Z,11160.00
2019-03-11T10:52:12.948Z,12584.00
2019-03-11T10:53:12.886Z,11092.00
2019-03-11T10:54:12.885Z,9720.00
2019-03-11T10:55:12.878Z,9980.00
2019-03-11T10:56:12.852Z,8756.00
2019-03-11T10:57:12.863Z,8496.00
2019-03-11T10:58:12.864Z,8984.00
2019-03-11T10:59:12.818Z,8616.00
2019-03-11T11:00:12.819Z,7108.00
2019-03-11T11:01:12.827Z,5684.00
2019-03-11T11:02:12.809Z,4940.00
2019-03-11T11:03:12.781Z,5132.00
2019-03-11T11:04:12.788Z,5600.00
2019-03-11T11:05:12.774Z,4608.00
2019-03-11T11:06:12.755Z,3820.00
2019-03-11T11:07:12.766Z,3640.00
2019-03-11T11:08:12.722Z,3672.00
2019-03-11T11:09:12.716Z,4312.00
2019-03-11T11:10:12.708Z,4040.00
2019-03-11T11:11:12.712Z,4344.00
2019-03-11T11:12:12.706Z,4664.00
2019-03-11T11:13:12.679Z,5120.00
2019-03-11T11:14:12.675Z,5484.00
2019-03-11T11:15:12.666Z,5936.00
2019-03-11T11:16:12.646Z,5496.00
2019-03-11T11:17:12.636Z,5276.00
2019-03-11T11:18:12.644Z,4612.00
2019-03-11T11:19:12.612Z,4320.00
2019-03-11T11:20:12.599Z,3460.00
2019-03-11T11:21:12.614Z,3428.00
2019-03-11T11:22:14.084Z,3576.00
2019-03-11T11:23:12.584Z,4100.00
2019-03-11T11:24:12.556Z,4368.00
2019-03-11T11:25:12.541Z,4728.00
2019-03-11T11:26:12.574Z,4720.00
2019-03-11T11:27:12.531Z,4340.00
2019-03-11T11:28:12.534Z,3876.00
2019-03-11T11:29:12.518Z,3028.00
2019-03-11T11:30:12.516Z,3180.00
2019-03-11T11:31:12.502Z,2276.00
2019-03-11T11:32:12.514Z,2440.00
2019-03-11T11:33:12.490Z,2340.00
2019-03-11T11:34:12.458Z,2552.00
2019-03-11T11:35:12.444Z,2580.00
2019-03-11T11:36:12.433Z,2832.00
2019-03-11T11:37:12.419Z,2796.00
2019-03-11T11:38:12.442Z,2448.00
2019-03-11T11:39:12.398Z,1756.00
2019-03-11T11:40:12.392Z,1624.00
2019-03-11T11:41:12.375Z,1456.00
2019-03-11T11:42:12.371Z,1572.00
2019-03-11T11:43:12.414Z,1748.00
2019-03-11T11:44:12.430Z,1668.00
2019-03-11T11:45:12.382Z,1972.00
2019-03-11T11:46:12.337Z,2324.00
2019-03-11T11:47:12.448Z,2400.00
2019-03-11T11:48:12.309Z,2340.00
2019-03-11T11:49:12.310Z,2580.00
2019-03-11T11:50:12.299Z,2924.00
2019-03-11T11:51:12.270Z,3348.00
2019-03-11T11:52:12.280Z,3632.00
2019-03-11T11:53:12.255Z,3680.00
2019-03-11T11:54:12.260Z,3508.00
2019-03-11T11:55:12.229Z,3544.00
2019-03-11T11:56:12.231Z,3260.00
2019-03-11T11:57:12.209Z,2952.00
2019-03-11T11:58:12.206Z,3272.00
2019-03-11T11:59:12.211Z,3304.00
2019-03-11T12:00:12.182Z,3200.00
2019-03-11T12:01:12.190Z,3260.00
2019-03-11T12:02:12.160Z,3184.00
2019-03-11T12:03:12.146Z,3428.00
2019-03-11T12:04:13.571Z,3832.00
2019-03-11T12:05:12.160Z,4504.00
2019-03-11T12:06:12.114Z,5088.00
2019-03-11T12:07:12.102Z,5916.00
2019-03-11T12:08:12.094Z,6768.00
2019-03-11T12:09:12.120Z,7336.00
2019-03-11T12:10:12.092Z,7540.00
2019-03-11T12:11:12.056Z,7668.00
2019-03-11T12:12:12.051Z,7580.00
2019-03-11T12:13:12.046Z,7284.00
2019-03-11T12:14:12.195Z,7172.00
2019-03-11T12:15:12.031Z,6700.00
2019-03-11T12:16:12.035Z,6976.00
2019-03-11T12:17:12.666Z,6456.00
2019-03-11T12:18:12.062Z,8268.00
2019-03-11T12:19:11.980Z,8084.00
2019-03-11T12:20:11.998Z,7228.00
2019-03-11T12:21:11.996Z,6980.00
2019-03-11T12:22:11.990Z,6516.00
2019-03-11T12:23:11.935Z,5800.00
2019-03-11T12:24:11.938Z,4920.00
2019-03-11T12:25:11.930Z,4452.00
2019-03-11T12:26:11.936Z,4408.00
2019-03-11T12:27:11.897Z,4500.00
2019-03-11T12:28:12.004Z,4612.00
2019-03-11T12:29:11.879Z,4744.00
2019-03-11T12:30:11.873Z,4764.00
2019-03-11T12:31:11.849Z,4992.00
2019-03-11T12:32:11.907Z,4856.00
2019-03-11T12:33:11.835Z,4988.00
2019-03-11T12:34:11.820Z,5088.00
2019-03-11T12:35:11.826Z,4988.00
2019-03-11T12:36:11.837Z,4756.00
2019-03-11T12:37:11.797Z,5332.00
2019-03-11T12:38:11.793Z,5444.00
2019-03-11T12:39:11.776Z,5928.00